Time;durP1;ratioP1;P1;durP2;ratioP2;P2;SDS_P1;SDS_P2;PMS_P1;PMS_P2;Temp;Humidity;BMP_temperature;BMP_pressure;BME280_temperature;BME280_humidity;BME280_pressure;Samples;Min_cycle;Max_cycle;Signal;HPM_P1;HPM_P2
2022/07/02 00:01:52;;;;;;;;;4.75;4.00;;;;;19.91;45.80;101884.69;4982792;28;46082;-54
2022/07/02 00:04:20;;;;;;;;;5.00;4.50;;;;;19.93;46.23;101890.75;4983164;28;45545;-50
2022/07/02 00:06:48;;;;;;;;;5.25;4.25;;;;;19.91;46.17;101893.53;4982975;28;45343;-52
2022/07/02 00:09:14;;;;;;;;;7.50;6.50;;;;;19.90;46.19;101899.00;4982913;28;45426;-53
2022/07/02 00:11:41;;;;;;;;;7.00;7.00;;;;;19.89;45.86;101899.97;4982565;28;45318;-51
2022/07/02 00:14:08;;;;;;;;;6.25;5.75;;;;;19.90;45.88;101899.00;4982561;28;45248;-50
2022/07/02 00:16:34;;;;;;;;;7.25;5.00;;;;;19.89;46.57;101892.78;4981721;28;45311;-53
2022/07/02 00:19:00;;;;;;;;;6.25;6.00;;;;;19.86;46.33;101900.22;4992691;28;45232;-49
2022/07/02 00:21:26;;;;;;;;;7.50;5.00;;;;;19.84;46.46;101896.84;5002179;28;45425;-53
2022/07/02 00:23:51;;;;;;;;;7.25;5.25;;;;;19.82;46.63;101894.25;5002460;28;45337;-52
2022/07/02 00:26:29;;;;;;;;;10.00;8.50;;;;;19.80;47.00;101894.38;4987834;28;45322;-54
2022/07/02 00:29:34;;;;;;;;;6.50;6.50;;;;;19.76;46.97;101892.94;4982677;28;45423;-53
2022/07/02 00:32:00;;;;;;;;;10.75;10.00;;;;;19.74;47.51;101900.22;4931549;28;45431;-52
2022/07/02 00:34:25;;;;;;;;;12.00;10.50;;;;;19.71;47.40;101895.13;4990489;28;45293;-50
2022/07/02 00:36:51;;;;;;;;;11.25;10.50;;;;;19.72;47.49;101895.97;4984403;28;45365;-51
2022/07/02 00:39:17;;;;;;;;;17.00;13.25;;;;;19.70;47.89;101893.44;5001969;28;45174;-48
2022/07/02 00:41:45;;;;;;;;;17.50;14.50;;;;;19.69;48.36;101896.22;5002023;28;45282;-54
2022/07/02 00:44:12;;;;;;;;;18.00;15.25;;;;;19.67;47.93;101888.34;5001582;28;45416;-54
2022/07/02 00:46:39;;;;;;;;;17.25;14.00;;;;;19.64;48.30;101888.56;5001798;28;45384;-50
2022/07/02 00:49:04;;;;;;;;;12.25;11.50;;;;;19.66;48.10;101880.41;5001749;28;45480;-54
2022/07/02 00:51:30;;;;;;;;;7.75;7.00;;;;;19.63;48.66;101881.50;5001937;28;46022;-51
2022/07/02 00:53:55;;;;;;;;;11.00;7.25;;;;;19.62;49.00;101882.50;5001809;28;45255;-51
2022/07/02 00:56:21;;;;;;;;;12.00;8.25;;;;;19.56;48.94;101874.91;5001887;28;45250;-50
2022/07/02 00:58:47;;;;;;;;;8.00;7.00;;;;;19.55;49.25;101875.91;5002031;28;45358;-53
2022/07/02 01:01:13;;;;;;;;;7.00;5.25;;;;;19.52;49.21;101876.16;5001510;28;45369;-50
2022/07/02 01:03:42;;;;;;;;;5.00;4.00;;;;;19.50;48.99;101876.25;5001315;28;45255;-53
2022/07/02 01:06:08;;;;;;;;;6.75;6.50;;;;;19.50;49.67;101873.56;5001732;28;45366;-53
2022/07/02 01:11:18;;;;;;;;;6.50;5.00;;;;;19.45;49.22;101875.78;5001661;28;45452;-54
2022/07/02 01:13:44;;;;;;;;;4.75;4.75;;;;;19.42;49.91;101876.00;5001270;28;45314;-54
2022/07/02 01:16:10;;;;;;;;;7.00;4.00;;;;;19.39;49.92;101876.25;5001438;28;45269;-53
2022/07/02 01:18:37;;;;;;;;;6.75;5.00;;;;;19.35;50.16;101874.78;5001371;28;45394;-55
2022/07/02 01:21:03;;;;;;;;;4.75;3.00;;;;;19.33;50.13;101874.06;5001248;28;46146;-51
2022/07/02 01:23:28;;;;;;;;;1.00;1.00;;;;;19.31;49.97;101875.16;5001671;28;45250;-54
2022/07/02 01:25:54;;;;;;;;;3.75;3.75;;;;;19.27;50.00;101877.19;4990225;28;45516;-51
2022/07/02 01:28:20;;;;;;;;;6.00;3.75;;;;;19.21;50.14;101877.69;4981933;28;45172;-50
2022/07/02 01:30:47;;;;;;;;;3.75;3.50;;;;;19.14;50.47;101879.97;4981391;28;45297;-49
2022/07/02 01:33:12;;;;;;;;;4.00;3.00;;;;;19.12;50.33;101886.44;4987839;28;45246;-54
2022/07/02 01:35:38;;;;;;;;;3.75;3.25;;;;;19.06;50.66;101882.41;4988279;28;45307;-50
2022/07/02 01:38:04;;;;;;;;;4.00;4.00;;;;;19.05;51.13;101894.06;4981542;28;45420;-53
2022/07/02 01:40:29;;;;;;;;;5.75;3.00;;;;;19.04;50.87;101889.69;4981380;28;45327;-50
2022/07/02 01:42:55;;;;;;;;;5.00;2.50;;;;;19.05;51.32;101891.38;4981476;28;45349;-53
2022/07/02 01:45:20;;;;;;;;;3.75;3.75;;;;;19.03;51.28;101885.28;4981408;28;45489;-51
2022/07/02 01:47:46;;;;;;;;;5.00;4.00;;;;;19.02;51.32;101886.25;4980407;28;45503;-48
2022/07/02 01:50:12;;;;;;;;;4.00;3.25;;;;;19.01;51.54;101884.56;4973609;28;45642;-49
2022/07/02 01:52:37;;;;;;;;;3.00;3.00;;;;;19.01;51.57;101886.38;4988252;28;45358;-54
2022/07/02 01:55:04;;;;;;;;;4.00;3.00;;;;;19.00;51.65;101882.84;5001060;28;45399;-52
2022/07/02 01:57:33;;;;;;;;;7.00;5.25;;;;;19.00;51.56;101885.53;5001100;28;45418;-53
2022/07/02 01:59:59;;;;;;;;;4.00;4.00;;;;;19.01;51.63;101886.38;5000597;28;45433;-54
2022/07/02 02:02:25;;;;;;;;;3.00;3.00;;;;;18.98;51.78;101884.81;5000731;28;45459;-53
2022/07/02 02:04:50;;;;;;;;;4.00;3.75;;;;;18.94;52.01;101878.84;5000826;28;45247;-53
2022/07/02 02:07:16;;;;;;;;;6.75;3.75;;;;;18.92;52.26;101888.78;5001124;28;45341;-54
2022/07/02 02:09:41;;;;;;;;;4.00;4.00;;;;;18.91;52.37;101883.56;5000729;28;45302;-53
2022/07/02 02:12:07;;;;;;;;;5.25;4.00;;;;;18.88;52.41;101879.31;5001069;28;45211;-52
2022/07/02 02:14:33;;;;;;;;;5.00;3.50;;;;;18.83;52.55;101881.47;5000597;28;45471;-49
2022/07/02 02:16:59;;;;;;;;;4.00;4.00;;;;;18.81;52.34;101874.56;5000801;28;46024;-53
2022/07/02 02:19:24;;;;;;;;;3.00;3.00;;;;;18.78;52.26;101874.78;5000138;28;46616;-54
2022/07/02 02:21:50;;;;;;;;;0.25;0.00;;;;;18.73;52.91;101864.47;5000677;28;45175;-52
2022/07/02 02:24:16;;;;;;;;;4.00;4.00;;;;;18.67;53.04;101871.09;5000823;28;45503;-50
2022/07/02 02:26:41;;;;;;;;;7.00;6.00;;;;;18.66;53.03;101865.91;4983087;28;45306;-51
2022/07/02 02:29:07;;;;;;;;;8.75;4.00;;;;;18.64;53.11;101865.09;4980520;28;46252;-52
2022/07/02 02:31:32;;;;;;;;;4.50;4.50;;;;;18.60;53.21;101863.66;4979828;28;45399;-53
2022/07/02 02:33:58;;;;;;;;;3.00;3.00;;;;;18.56;53.34;101862.16;4981027;28;45471;-53
2022/07/02 02:36:23;;;;;;;;;4.00;4.00;;;;;18.54;53.21;101869.44;4981008;28;45287;-52
2022/07/02 02:38:49;;;;;;;;;5.75;3.25;;;;;18.53;53.28;101865.06;4980670;28;45380;-53
2022/07/02 02:41:15;;;;;;;;;5.00;4.00;;;;;18.54;53.79;101867.63;4980940;28;45243;-50
2022/07/02 02:43:41;;;;;;;;;4.00;3.00;;;;;18.53;53.41;101857.91;4981136;28;45334;-54
2022/07/02 02:46:06;;;;;;;;;3.00;3.00;;;;;18.51;53.52;101859.84;4980756;28;45222;-52
2022/07/02 02:48:34;;;;;;;;;4.00;3.00;;;;;18.51;53.81;101859.84;4980690;28;45865;-54
2022/07/02 02:50:59;;;;;;;;;2.00;2.00;;;;;18.49;53.58;101859.13;4980851;28;45286;-53
2022/07/02 02:53:25;;;;;;;;;5.75;4.00;;;;;18.49;54.01;101856.47;4980793;28;45238;-53
2022/07/02 02:55:51;;;;;;;;;6.75;4.00;;;;;18.46;54.18;101859.34;4980669;28;45666;-55
2022/07/02 02:58:16;;;;;;;;;5.25;3.50;;;;;18.44;54.30;101860.44;4981326;28;45376;-51
2022/07/02 03:00:42;;;;;;;;;5.00;4.25;;;;;18.42;53.95;101856.06;4983833;28;45885;-49
2022/07/02 03:03:08;;;;;;;;;5.25;3.50;;;;;18.43;54.09;101851.56;4983985;28;45325;-52
2022/07/02 03:05:33;;;;;;;;;4.00;4.00;;;;;18.42;54.23;101857.88;4983865;28;45330;-50
2022/07/02 03:07:59;;;;;;;;;7.50;4.50;;;;;18.40;54.02;101847.28;4983770;28;46459;-51
2022/07/02 03:10:24;;;;;;;;;5.75;5.75;;;;;18.39;54.31;101852.75;4983666;28;45258;-54
2022/07/02 03:12:50;;;;;;;;;3.75;3.00;;;;;18.33;54.63;101854.09;4983790;28;45299;-50
2022/07/02 03:15:15;;;;;;;;;5.75;5.00;;;;;18.28;54.14;101858.03;4984123;28;45463;-54
2022/07/02 03:17:41;;;;;;;;;5.75;4.50;;;;;18.21;54.53;101854.97;4991077;28;45406;-53
2022/07/02 03:20:07;;;;;;;;;5.00;5.00;;;;;18.15;54.75;101855.41;5002646;28;45239;-53
2022/07/02 03:22:32;;;;;;;;;7.00;4.75;;;;;18.16;54.66;101858.94;5001364;28;45335;-53
2022/07/02 03:24:58;;;;;;;;;4.50;4.50;;;;;18.11;54.97;101862.81;4999304;28;45243;-54
2022/07/02 03:27:24;;;;;;;;;4.00;4.00;;;;;18.08;54.80;101863.00;4983225;28;45240;-52
2022/07/02 03:29:51;;;;;;;;;5.00;5.00;;;;;18.06;54.86;101866.75;4983038;28;45311;-52
2022/07/02 03:32:17;;;;;;;;;5.25;4.75;;;;;18.05;55.15;101865.06;4965839;28;45395;-54
2022/07/02 03:34:42;;;;;;;;;5.75;4.75;;;;;18.04;55.11;101861.53;4983477;28;46725;-51
2022/07/02 03:37:08;;;;;;;;;5.50;4.00;;;;;18.07;55.08;101853.31;4983123;28;45342;-53
2022/07/02 03:39:33;;;;;;;;;7.00;6.50;;;;;18.09;55.58;101858.56;4983210;28;45377;-52
2022/07/02 03:41:58;;;;;;;;;6.50;6.00;;;;;18.11;55.40;101857.47;4983342;28;45326;-50
2022/07/02 03:44:24;;;;;;;;;8.00;5.00;;;;;18.10;55.19;101860.25;4983139;28;45282;-52
2022/07/02 03:46:49;;;;;;;;;7.25;6.00;;;;;18.05;55.32;101855.25;4981803;28;45890;-54
2022/07/02 03:49:15;;;;;;;;;7.00;7.00;;;;;18.03;55.42;101853.66;4983051;28;45306;-53
2022/07/02 03:51:40;;;;;;;;;6.75;4.00;;;;;18.03;55.42;101861.66;4983648;28;45247;-51
2022/07/02 03:54:06;;;;;;;;;11.00;9.50;;;;;18.03;55.42;101869.66;4983143;28;46218;-54
2022/07/02 03:56:31;;;;;;;;;7.00;7.00;;;;;18.05;55.49;101865.06;4983133;28;45228;-52
2022/07/02 03:58:57;;;;;;;;;7.00;6.00;;;;;18.05;55.81;101862.41;4982700;28;45243;-51
2022/07/02 04:01:22;;;;;;;;;8.25;7.00;;;;;18.07;55.87;101865.78;4983163;28;45183;-52
2022/07/02 04:03:48;;;;;;;;;11.00;6.00;;;;;18.04;55.55;101858.03;4983064;28;45208;-53
2022/07/02 04:06:13;;;;;;;;;8.50;7.75;;;;;18.00;55.46;101857.38;4981058;28;46148;-51
2022/07/02 04:08:39;;;;;;;;;10.00;8.25;;;;;17.97;55.83;101862.09;4982637;28;45280;-52
2022/07/02 04:11:04;;;;;;;;;6.50;5.75;;;;;17.97;55.87;101864.78;4981521;28;45251;-53
2022/07/02 04:13:30;;;;;;;;;7.25;6.50;;;;;17.99;55.90;101863.69;4982908;28;45139;-55
2022/07/02 04:15:55;;;;;;;;;8.25;7.00;;;;;17.98;55.88;101853.13;4982701;28;45854;-53
2022/07/02 04:18:21;;;;;;;;;10.00;8.50;;;;;17.97;56.04;101860.28;4987068;28;45465;-52
2022/07/02 04:20:46;;;;;;;;;7.75;7.00;;;;;17.98;55.90;101861.97;5002724;28;45286;-52
2022/07/02 04:23:12;;;;;;;;;9.00;7.25;;;;;17.98;55.88;101858.47;5002289;28;45309;-52
2022/07/02 04:25:38;;;;;;;;;13.50;8.00;;;;;17.97;56.33;101864.78;4992986;28;45401;-51
2022/07/02 04:28:04;;;;;;;;;7.00;5.00;;;;;17.99;55.97;101874.34;4982467;28;45364;-50
2022/07/02 04:30:30;;;;;;;;;12.25;7.25;;;;;18.00;55.92;101865.38;4982384;28;45326;-52
2022/07/02 04:32:55;;;;;;;;;9.00;8.00;;;;;18.03;56.28;101867.84;4982252;28;45263;-54
2022/07/02 04:35:21;;;;;;;;;8.25;8.25;;;;;18.07;56.04;101863.97;4982339;28;46047;-52
2022/07/02 04:37:46;;;;;;;;;10.00;8.75;;;;;18.11;56.28;101868.13;4982266;28;45240;-55
2022/07/02 04:40:12;;;;;;;;;8.50;6.00;;;;;18.13;56.03;101868.88;4982596;28;45200;-53
2022/07/02 04:42:38;;;;;;;;;10.25;8.00;;;;;18.18;56.24;101873.03;4982332;28;45422;-49
2022/07/02 04:45:04;;;;;;;;;10.50;6.75;;;;;18.19;55.88;101867.56;4982110;28;46162;-54
2022/07/02 04:47:30;;;;;;;;;10.00;9.00;;;;;18.23;56.04;101866.38;4982170;28;45315;-54
2022/07/02 04:49:55;;;;;;;;;11.50;7.50;;;;;18.24;56.28;101867.22;4982275;28;45211;-54
2022/07/02 04:52:21;;;;;;;;;8.25;8.00;;;;;18.24;55.94;101865.41;4982177;28;45415;-53
2022/07/02 04:54:46;;;;;;;;;10.00;6.25;;;;;18.24;56.27;101861.88;4982169;28;45904;-53
2022/07/02 04:57:12;;;;;;;;;7.50;7.00;;;;;18.24;56.36;101865.41;4981860;28;45286;-53
2022/07/02 04:59:37;;;;;;;;;11.00;8.00;;;;;18.27;56.03;101865.19;4982057;28;45426;-54
2022/07/02 05:02:03;;;;;;;;;10.25;9.50;;;;;18.29;55.74;101865.06;4982121;28;45358;-52
2022/07/02 05:04:28;;;;;;;;;10.25;8.00;;;;;18.28;55.99;101866.03;4982088;28;45263;-52
2022/07/02 05:06:53;;;;;;;;;8.50;7.75;;;;;18.28;56.09;101866.91;4981923;28;45318;-53
2022/07/02 05:09:19;;;;;;;;;10.50;7.75;;;;;18.28;55.94;101866.91;4982022;28;45374;-54
2022/07/02 05:11:46;;;;;;;;;10.75;9.00;;;;;18.30;55.84;101864.09;4981329;28;45253;-53
2022/07/02 05:14:11;;;;;;;;;7.50;7.00;;;;;18.30;55.73;101858.78;4990986;28;45367;-55
2022/07/02 05:16:37;;;;;;;;;10.50;10.50;;;;;18.30;55.99;101858.78;4981607;28;45264;-53
2022/07/02 05:19:02;;;;;;;;;10.25;10.00;;;;;18.32;55.83;101854.16;4992104;28;45438;-50
2022/07/02 05:21:27;;;;;;;;;9.50;8.00;;;;;18.33;55.59;101854.09;5001076;28;45440;-55
2022/07/02 05:23:53;;;;;;;;;11.75;10.75;;;;;18.35;56.00;101868.16;5001349;28;46045;-52
2022/07/02 05:26:20;;;;;;;;;14.00;7.00;;;;;18.37;55.80;101860.88;4985986;28;45351;-51
2022/07/02 05:28:45;;;;;;;;;12.75;11.25;;;;;18.43;55.98;101859.56;4981742;28;45372;-54
2022/07/02 05:31:11;;;;;;;;;10.75;9.25;;;;;18.53;56.24;101865.91;4981495;28;45418;-52
2022/07/02 05:33:36;;;;;;;;;14.00;10.00;;;;;18.59;55.83;101864.63;4981283;28;45358;-52
2022/07/02 05:36:02;;;;;;;;;12.25;9.75;;;;;18.66;56.01;101866.75;4981203;28;45368;-53
2022/07/02 05:38:27;;;;;;;;;12.75;10.25;;;;;18.74;55.89;101865.31;4980360;28;45368;-52
2022/07/02 05:40:52;;;;;;;;;13.50;12.25;;;;;18.82;55.44;101869.09;4981530;28;45453;-51
2022/07/02 05:43:18;;;;;;;;;12.25;11.00;;;;;18.92;55.67;101870.09;4981371;28;45303;-54
2022/07/02 05:45:43;;;;;;;;;10.50;10.00;;;;;19.02;55.68;101866.72;4979066;28;45352;-53
2022/07/02 05:48:09;;;;;;;;;10.25;9.50;;;;;19.13;55.01;101864.09;4981482;28;45258;-52
2022/07/02 05:50:34;;;;;;;;;12.00;10.50;;;;;19.22;54.97;101858.03;4981441;28;45513;-51
2022/07/02 05:53:00;;;;;;;;;12.00;11.00;;;;;19.29;55.32;101859.25;4981560;28;45322;-51
2022/07/02 05:55:26;;;;;;;;;14.50;11.75;;;;;19.35;54.65;101866.75;4981027;28;45285;-51
2022/07/02 05:57:51;;;;;;;;;13.00;11.25;;;;;19.43;54.47;101868.81;4981295;28;45306;-52
2022/07/02 06:00:17;;;;;;;;;9.50;9.50;;;;;19.49;54.64;101871.03;4981085;28;45735;-52
2022/07/02 06:02:42;;;;;;;;;13.50;12.75;;;;;19.55;54.56;101867.03;4981185;28;45226;-51
2022/07/02 06:08:12;;;;;;;;;12.00;10.75;;;;;19.73;54.24;101863.75;4953493;28;45422;-50
2022/07/02 06:10:37;;;;;;;;;17.00;10.75;;;;;19.82;54.26;101867.53;4940515;28;45308;-49
2022/07/02 06:13:03;;;;;;;;;17.50;14.25;;;;;19.86;54.32;101858.28;4959703;28;45464;-52
2022/07/02 06:15:28;;;;;;;;;11.75;11.75;;;;;19.91;54.19;101861.44;5000518;28;45314;-51
2022/07/02 06:17:59;;;;;;;;;17.75;12.00;;;;;19.98;54.15;101864.44;5000195;28;45234;-49
2022/07/02 06:20:24;;;;;;;;;13.00;12.25;;;;;20.00;53.38;101859.84;5000800;28;45500;-51
2022/07/02 06:22:50;;;;;;;;;6.75;5.50;;;;;20.12;53.80;101871.38;5000509;28;45961;-52
2022/07/02 06:25:15;;;;;;;;;15.25;12.75;;;;;20.19;53.50;101867.22;4994673;28;45330;-51
2022/07/02 06:27:41;;;;;;;;;10.00;8.50;;;;;20.26;53.13;101861.25;4981052;28;45299;-54
2022/07/02 06:30:07;;;;;;;;;10.00;7.25;;;;;20.32;52.82;101868.78;4981160;28;45203;-54
2022/07/02 06:32:33;;;;;;;;;8.50;6.50;;;;;20.38;51.88;101864.75;4980994;28;45436;-54
2022/07/02 06:34:58;;;;;;;;;7.75;7.00;;;;;20.48;51.75;101859.50;4984315;28;45319;-50
2022/07/02 06:37:24;;;;;;;;;8.50;6.25;;;;;20.59;51.25;101862.13;4984301;28;45538;-51
2022/07/02 06:39:50;;;;;;;;;7.00;7.00;;;;;20.70;51.07;101863.91;4984316;28;45482;-50
2022/07/02 06:42:19;;;;;;;;;3.75;3.75;;;;;20.79;50.58;101868.50;4984009;28;45458;-53
2022/07/02 06:44:52;;;;;;;;;5.00;5.00;;;;;20.87;50.35;101864.19;4982910;28;45519;-51
2022/07/02 06:47:18;;;;;;;;;7.00;5.00;;;;;20.95;50.16;101866.22;4984000;28;45488;-50
2022/07/02 06:49:44;;;;;;;;;5.50;5.50;;;;;21.02;49.26;101866.53;4984172;28;45484;-49
2022/07/02 06:52:10;;;;;;;;;3.50;3.25;;;;;21.02;49.24;101856.66;4983982;28;45373;-55
2022/07/02 06:54:36;;;;;;;;;5.50;5.25;;;;;21.11;49.21;101858.56;4983994;28;45284;-50
2022/07/02 06:57:03;;;;;;;;;6.00;5.00;;;;;21.22;49.04;101864.81;4983921;28;45170;-53
2022/07/02 06:59:29;;;;;;;;;6.00;6.00;;;;;21.28;48.95;101858.97;4983774;28;45501;-49
2022/07/02 07:01:54;;;;;;;;;5.25;3.75;;;;;21.36;48.67;101864.50;4983628;28;45247;-51
2022/07/02 07:04:20;;;;;;;;;5.25;4.50;;;;;21.36;48.02;101864.50;4983787;28;45229;-49
2022/07/02 07:06:52;;;;;;;;;3.75;3.50;;;;;21.39;47.99;101864.22;4983931;28;45420;-49
2022/07/02 07:09:18;;;;;;;;;6.25;5.00;;;;;21.44;48.08;101872.72;4983974;28;45231;-52
2022/07/02 07:11:44;;;;;;;;;3.00;3.00;;;;;21.45;47.52;101861.84;4983796;28;46469;-54
2022/07/02 07:14:09;;;;;;;;;3.25;2.25;;;;;21.46;47.22;101860.88;4983597;28;45377;-55
2022/07/02 07:16:34;;;;;;;;;3.00;3.00;;;;;21.50;47.24;101860.63;4983686;28;45397;-54
2022/07/02 07:19:04;;;;;;;;;3.50;3.00;;;;;21.58;47.06;101863.47;4993727;28;45417;-50
2022/07/02 07:21:33;;;;;;;;;3.75;2.50;;;;;21.60;46.93;101854.31;5003121;28;46137;-53
2022/07/02 07:23:59;;;;;;;;;5.25;3.00;;;;;21.62;46.50;101855.00;5003089;28;45253;-55
2022/07/02 07:26:24;;;;;;;;;4.50;4.50;;;;;21.67;46.50;101850.09;4987670;28;45277;-52
2022/07/02 07:28:50;;;;;;;;;6.50;2.50;;;;;21.72;46.69;101847.00;4983579;28;45571;-51
2022/07/02 07:31:22;;;;;;;;;3.75;3.75;;;;;21.75;46.11;101854.78;4965925;28;45426;-55
2022/07/02 07:33:51;;;;;;;;;4.00;3.00;;;;;21.79;46.15;101845.47;4983596;28;45242;-52
2022/07/02 07:36:18;;;;;;;;;2.75;1.50;;;;;21.85;45.72;101846.75;4983220;28;45266;-54
2022/07/02 07:38:44;;;;;;;;;6.75;3.75;;;;;21.92;45.85;101845.22;4981341;28;45438;-53
2022/07/02 07:41:09;;;;;;;;;1.75;1.75;;;;;21.99;45.69;101849.06;4982943;28;45445;-54
2022/07/02 07:43:35;;;;;;;;;3.25;2.75;;;;;22.05;45.68;101848.50;4982796;28;45353;-54
2022/07/02 07:46:00;;;;;;;;;2.25;2.00;;;;;22.07;45.36;101846.53;4982162;28;45536;-53
2022/07/02 07:48:26;;;;;;;;;2.25;2.25;;;;;22.12;44.82;101846.13;4983424;28;45287;-52
2022/07/02 07:50:52;;;;;;;;;3.00;1.75;;;;;22.15;44.81;101844.03;4983081;28;45897;-52
2022/07/02 07:53:17;;;;;;;;;2.75;2.75;;;;;22.19;44.97;101832.00;4983337;28;45469;-54
2022/07/02 07:55:43;;;;;;;;;3.25;2.00;;;;;22.22;44.88;101841.66;4983113;28;45452;-51
2022/07/02 07:58:08;;;;;;;;;3.00;1.75;;;;;22.26;44.44;101837.66;4981171;28;45622;-52
2022/07/02 08:00:34;;;;;;;;;1.00;1.00;;;;;22.28;44.58;101833.88;4982770;28;46039;-52
2022/07/02 08:02:59;;;;;;;;;1.25;0.75;;;;;22.29;44.20;101842.78;4982945;28;45267;-54
2022/07/02 08:05:25;;;;;;;;;0.75;0.75;;;;;22.31;43.68;101831.91;4982954;28;45224;-54
2022/07/02 08:07:51;;;;;;;;;0.75;0.75;;;;;22.35;43.39;101833.28;4982589;28;45660;-52
2022/07/02 08:10:16;;;;;;;;;1.25;0.75;;;;;22.38;43.44;101830.34;4982780;28;45976;-53
2022/07/02 08:12:42;;;;;;;;;0.00;0.00;;;;;22.40;42.66;101825.69;4982888;28;45362;-54
2022/07/02 08:15:09;;;;;;;;;1.00;1.00;;;;;22.44;42.70;101827.94;4980606;28;45366;-54
2022/07/02 08:17:36;;;;;;;;;2.00;0.75;;;;;22.49;43.00;101828.34;4982713;28;45392;-55
2022/07/02 08:20:04;;;;;;;;;1.00;1.00;;;;;22.54;42.87;101826.09;5000979;28;46109;-53
2022/07/02 08:22:31;;;;;;;;;1.75;1.00;;;;;22.61;42.69;101837.13;5002416;28;46448;-54
2022/07/02 08:24:57;;;;;;;;;2.00;1.00;;;;;22.65;42.18;101833.16;4998490;28;45439;-52
2022/07/02 08:27:22;;;;;;;;;0.75;0.75;;;;;22.69;42.01;101831.88;4980802;28;45414;-52
2022/07/02 08:29:48;;;;;;;;;0.75;0.75;;;;;22.73;42.07;101833.28;4982361;28;45285;-53
2022/07/02 08:32:13;;;;;;;;;1.50;1.00;;;;;22.76;42.12;101824.97;4982364;28;45270;-51
2022/07/02 08:34:39;;;;;;;;;0.00;0.00;;;;;22.81;41.67;101827.19;4982662;28;45229;-54
2022/07/02 08:37:05;;;;;;;;;0.75;0.25;;;;;22.87;41.28;101828.50;4982391;28;45311;-52
2022/07/02 08:39:30;;;;;;;;;1.00;1.00;;;;;22.89;41.66;101823.81;4982221;28;45469;-52
2022/07/02 08:41:58;;;;;;;;;1.00;1.00;;;;;22.93;41.21;101817.19;4982272;28;45254;-53
2022/07/02 08:44:25;;;;;;;;;1.00;1.00;;;;;22.93;41.26;101820.72;4982041;28;45473;-54
2022/07/02 08:46:51;;;;;;;;;1.25;0.50;;;;;22.93;41.21;101825.25;4982396;28;45271;-53
2022/07/02 08:49:18;;;;;;;;;1.00;0.75;;;;;22.97;41.04;101823.94;4964612;28;46679;-54
2022/07/02 08:52:03;;;;;;;;;0.75;0.75;;;;;23.00;40.58;101818.28;4981632;28;45271;-54
2022/07/02 08:54:31;;;;;;;;;0.50;0.50;;;;;23.05;40.94;101816.84;4982431;28;45471;-52
2022/07/02 08:57:00;;;;;;;;;0.75;0.00;;;;;23.06;40.60;101810.47;4981373;28;45310;-52
2022/07/02 08:59:26;;;;;;;;;0.00;0.00;;;;;23.08;40.16;101813.88;4982097;28;45315;-53
2022/07/02 09:01:52;;;;;;;;;0.00;0.00;;;;;23.09;40.32;101806.66;4981891;28;45437;-52
2022/07/02 09:04:22;;;;;;;;;2.00;0.25;;;;;23.11;40.09;101808.19;4982304;28;45397;-54
2022/07/02 09:06:49;;;;;;;;;1.75;0.50;;;;;23.16;40.14;101805.09;4982145;28;45481;-55
2022/07/02 09:09:16;;;;;;;;;0.75;0.75;;;;;23.21;39.49;101816.22;4980208;28;45309;-53
2022/07/02 09:11:42;;;;;;;;;0.00;0.00;;;;;23.22;39.49;101809.84;4981913;28;45358;-54
2022/07/02 09:14:08;;;;;;;;;1.75;0.25;;;;;23.24;39.68;101799.81;4981903;28;45265;-50
2022/07/02 09:16:34;;;;;;;;;0.00;0.00;;;;;23.25;39.65;101806.03;4979804;28;45579;-54
2022/07/02 09:18:59;;;;;;;;;3.00;0.00;;;;;23.29;39.12;101799.34;4991617;28;45434;-54
2022/07/02 09:21:25;;;;;;;;;0.00;0.00;;;;;23.36;39.43;101800.47;5001357;28;45324;-55
2022/07/02 09:23:51;;;;;;;;;0.00;0.00;;;;;23.42;38.78;101807.94;5001660;28;45407;-54
2022/07/02 09:26:20;;;;;;;;;2.75;1.00;;;;;23.44;38.86;101805.94;4987001;28;45368;-54
2022/07/02 09:28:59;;;;;;;;;0.00;0.00;;;;;23.51;39.21;101798.13;4981292;28;45659;-52
2022/07/02 09:31:29;;;;;;;;;0.00;0.00;;;;;23.58;38.81;101797.38;4981381;28;45333;-53
2022/07/02 09:33:55;;;;;;;;;1.00;1.00;;;;;23.64;38.59;101802.22;4981248;28;45261;-55
2022/07/02 09:36:21;;;;;;;;;0.00;0.00;;;;;23.68;38.60;101803.59;4981350;28;45235;-53
2022/07/02 09:38:49;;;;;;;;;1.00;1.00;;;;;23.70;38.42;101794.50;4981316;28;45360;-53
2022/07/02 09:41:21;;;;;;;;;1.75;1.00;;;;;23.73;38.31;101792.38;4986359;28;45381;-54
2022/07/02 09:43:52;;;;;;;;;1.50;0.00;;;;;23.78;38.30;101792.78;4987456;28;45775;-55
2022/07/02 09:46:19;;;;;;;;;2.00;0.00;;;;;23.85;38.56;101788.47;4981742;28;45175;-55
2022/07/02 09:48:46;;;;;;;;;0.00;0.00;;;;;23.91;38.57;101789.72;4981276;28;45295;-52
2022/07/02 09:51:13;;;;;;;;;1.25;0.75;;;;;24.01;38.24;101784.25;4981442;28;45349;-54
2022/07/02 09:53:51;;;;;;;;;2.25;1.00;;;;;24.10;38.47;101781.50;4981395;28;45273;-55
2022/07/02 09:56:21;;;;;;;;;1.00;0.00;;;;;24.16;38.08;101780.88;4981568;28;45445;-51
2022/07/02 09:58:47;;;;;;;;;1.00;1.00;;;;;24.19;38.00;101782.44;4980963;28;46622;-52
2022/07/02 10:01:18;;;;;;;;;0.00;0.00;;;;;24.22;37.81;101782.94;4981354;28;45274;-54
2022/07/02 10:03:51;;;;;;;;;1.00;0.75;;;;;24.28;37.66;101778.81;4981565;28;45218;-54
2022/07/02 10:06:18;;;;;;;;;1.00;1.00;;;;;24.28;38.01;101784.19;4981448;28;45473;-53
2022/07/02 10:08:44;;;;;;;;;0.00;0.00;;;;;24.30;37.83;101775.94;4983289;28;46707;-54
2022/07/02 10:11:12;;;;;;;;;1.25;0.00;;;;;24.36;37.85;101778.06;4979109;28;45224;-54
2022/07/02 10:13:39;;;;;;;;;0.25;0.25;;;;;24.42;37.02;101766.66;4983316;28;45394;-54
2022/07/02 10:16:17;;;;;;;;;2.00;0.50;;;;;24.50;37.18;101770.28;4984664;28;45329;-52
2022/07/02 10:18:43;;;;;;;;;1.00;1.00;;;;;24.57;37.40;101767.81;4991683;28;45501;-57
2022/07/02 10:21:14;;;;;;;;;1.50;0.00;;;;;24.64;37.46;101759.91;5004025;28;45303;-54
2022/07/02 10:23:43;;;;;;;;;1.75;0.00;;;;;24.73;37.12;101761.69;5004332;28;45317;-54
2022/07/02 10:26:10;;;;;;;;;0.00;0.00;;;;;24.76;36.95;101751.41;4990497;28;45584;-54
2022/07/02 10:28:36;;;;;;;;;0.50;0.50;;;;;24.73;36.50;101757.13;4984362;28;46259;-55
2022/07/02 10:31:02;;;;;;;;;0.00;0.00;;;;;24.76;36.66;101754.09;4984350;28;45353;-51
2022/07/02 10:33:50;;;;;;;;;0.25;0.25;;;;;24.83;36.34;101748.94;4984689;28;45332;-51
2022/07/02 10:36:17;;;;;;;;;1.00;0.75;;;;;24.88;36.36;101743.88;4984187;28;45436;-55
2022/07/02 10:38:46;;;;;;;;;0.25;0.25;;;;;24.92;36.61;101747.13;4984059;28;46204;-55
2022/07/02 10:41:12;;;;;;;;;0.50;0.00;;;;;24.98;36.34;101738.41;4983933;28;45370;-55
2022/07/02 10:43:39;;;;;;;;;0.00;0.00;;;;;25.05;36.28;101734.94;4983450;28;45439;-55
2022/07/02 10:46:11;;;;;;;;;2.00;0.00;;;;;25.14;36.37;101734.97;4983824;28;45674;-53
2022/07/02 10:48:54;;;;;;;;;0.25;0.00;;;;;25.22;35.77;101738.56;4982710;28;45573;-54
2022/07/02 10:51:23;;;;;;;;;1.75;0.00;;;;;25.22;35.97;101735.84;4984071;28;45168;-54
2022/07/02 10:53:53;;;;;;;;;2.00;1.00;;;;;25.22;35.42;101729.63;4982821;28;45455;-55
2022/07/02 10:56:19;;;;;;;;;0.00;0.00;;;;;25.27;35.40;101736.19;4984202;28;45472;-55
2022/07/02 10:58:45;;;;;;;;;0.00;0.00;;;;;25.35;35.05;101735.38;4983572;28;45422;-52
2022/07/02 11:01:15;;;;;;;;;1.25;1.00;;;;;25.41;35.48;101721.25;4983945;28;45293;-55
2022/07/02 11:04:01;;;;;;;;;0.00;0.00;;;;;25.46;35.22;101720.75;4983737;28;45326;-53
2022/07/02 11:06:28;;;;;;;;;0.25;0.25;;;;;25.48;34.82;101724.97;4979330;28;45644;-52
2022/07/02 11:09:04;;;;;;;;;0.00;0.00;;;;;25.50;34.99;101727.50;4983725;28;45309;-55
2022/07/02 11:11:32;;;;;;;;;1.00;0.00;;;;;25.51;34.80;101726.50;4983737;28;45461;-55
2022/07/02 11:13:58;;;;;;;;;1.00;0.00;;;;;25.53;34.76;101721.78;4983629;28;45318;-53
2022/07/02 11:16:31;;;;;;;;;0.00;0.00;;;;;25.59;34.91;101730.09;4983550;28;45225;-55
2022/07/02 11:19:00;;;;;;;;;1.50;0.00;;;;;25.64;34.50;101728.72;4992616;28;46168;-55
2022/07/02 11:21:27;;;;;;;;;2.00;1.00;;;;;25.64;34.37;101723.31;5002962;28;45341;-54
2022/07/02 11:23:53;;;;;;;;;0.00;0.00;;;;;25.63;34.37;101721.63;5003422;28;45289;-53
2022/07/02 11:26:21;;;;;;;;;0.50;0.50;;;;;25.67;34.14;101726.53;4988324;28;45164;-55